Time;durP1;ratioP1;P1;durP2;ratioP2;P2;SDS_P1;SDS_P2;PMS_P1;PMS_P2;Temp;Humidity;BMP_temperature;BMP_pressure;BME280_temperature;BME280_humidity;BME280_pressure;Samples;Min_cycle;Max_cycle;Signal;HPM_P1;HPM_P2
2021/05/05 00:01:35;;;;;;;3.53;0.50;;;12.20;76.90;;;;;;5099625;28;27446;-58
2021/05/05 00:04:20;;;;;;;0.50;0.50;;;12.30;77.30;;;;;;5103254;28;27449;-58
2021/05/05 00:07:05;;;;;;;0.75;0.40;;;12.20;77.70;;;;;;5103075;28;27664;-58
2021/05/05 00:09:49;;;;;;;3.90;0.40;;;12.20;77.20;;;;;;5103635;28;27382;-58
2021/05/05 00:12:35;;;;;;;2.30;0.55;;;12.10;77.30;;;;;;5103373;28;27351;-58
2021/05/05 00:15:23;;;;;;;0.43;0.40;;;12.10;77.60;;;;;;5103513;28;27386;-58
2021/05/05 00:18:08;;;;;;;0.50;0.50;;;12.10;77.20;;;;;;5099403;28;27457;-58
2021/05/05 00:20:53;;;;;;;0.68;0.38;;;12.10;77.80;;;;;;5102556;28;27502;-58
2021/05/05 00:23:38;;;;;;;0.93;0.22;;;12.10;78.20;;;;;;5103398;28;27423;-58
2021/05/05 00:26:22;;;;;;;0.65;0.28;;;12.00;77.80;;;;;;5102230;28;27462;-57
2021/05/05 00:29:07;;;;;;;1.90;0.45;;;12.00;77.50;;;;;;5103391;28;27457;-58
2021/05/05 00:31:52;;;;;;;0.60;0.30;;;12.00;77.20;;;;;;5103444;28;27466;-58
2021/05/05 00:34:36;;;;;;;0.75;0.30;;;12.00;76.60;;;;;;5103371;28;27417;-57
2021/05/05 00:37:21;;;;;;;1.40;0.40;;;12.00;76.90;;;;;;5103054;28;27445;-58
2021/05/05 00:40:06;;;;;;;0.30;0.30;;;12.00;76.90;;;;;;5103251;28;27447;-58
2021/05/05 00:42:50;;;;;;;0.82;0.32;;;11.90;76.30;;;;;;5102290;28;27498;-58
2021/05/05 00:45:35;;;;;;;0.40;0.30;;;11.90;76.40;;;;;;5103185;28;27436;-59
2021/05/05 00:48:20;;;;;;;0.38;0.20;;;11.90;76.70;;;;;;5103228;28;27431;-59
2021/05/05 00:51:05;;;;;;;0.85;0.40;;;11.90;76.60;;;;;;5103282;28;27449;-59
2021/05/05 00:53:50;;;;;;;1.23;0.30;;;11.80;76.20;;;;;;5099662;28;27979;-58
2021/05/05 00:56:34;;;;;;;0.20;0.20;;;11.80;76.10;;;;;;5087916;28;27405;-59
2021/05/05 00:59:19;;;;;;;0.40;0.20;;;11.80;76.40;;;;;;5070382;28;27389;-58
2021/05/05 01:02:04;;;;;;;0.38;0.20;;;11.80;76.40;;;;;;5098970;28;27375;-58
2021/05/05 01:04:50;;;;;;;0.20;0.20;;;11.70;76.20;;;;;;5098890;28;27467;-59
2021/05/05 01:07:36;;;;;;;0.38;0.20;;;11.70;76.40;;;;;;5099274;28;27572;-59
2021/05/05 01:10:22;;;;;;;0.20;0.20;;;11.70;77.50;;;;;;5098872;28;27424;-59
2021/05/05 01:13:08;;;;;;;0.55;0.15;;;11.70;77.40;;;;;;5102396;28;27464;-58
2021/05/05 01:15:53;;;;;;;1.90;0.22;;;11.60;77.60;;;;;;5098467;28;27471;-59
2021/05/05 01:18:37;;;;;;;0.13;0.13;;;11.60;77.60;;;;;;5105438;28;27438;-59
2021/05/05 01:21:22;;;;;;;0.35;0.20;;;11.60;78.20;;;;;;5105345;28;27405;-59
2021/05/05 01:24:08;;;;;;;0.32;0.30;;;11.60;77.80;;;;;;5087859;28;27403;-58
2021/05/05 01:26:53;;;;;;;0.55;0.20;;;11.50;78.50;;;;;;5103536;28;27855;-59
2021/05/05 01:29:38;;;;;;;0.10;0.10;;;11.50;78.00;;;;;;5105873;28;27578;-58
2021/05/05 01:32:23;;;;;;;1.25;0.22;;;11.50;78.80;;;;;;5073254;28;27464;-59
2021/05/05 01:35:09;;;;;;;0.30;0.10;;;11.50;79.00;;;;;;5087555;28;27450;-58
2021/05/05 01:37:54;;;;;;;0.10;0.10;;;11.40;78.80;;;;;;5102535;28;27461;-58
2021/05/05 01:40:39;;;;;;;0.22;0.20;;;11.40;79.00;;;;;;5102463;28;27400;-59
2021/05/05 01:43:25;;;;;;;0.30;0.30;;;11.40;79.70;;;;;;5101916;28;27394;-58
2021/05/05 01:46:10;;;;;;;0.10;0.10;;;11.30;78.80;;;;;;5101793;28;26975;-58
2021/05/05 01:48:55;;;;;;;0.35;0.10;;;11.30;79.70;;;;;;5103557;28;28020;-58
2021/05/05 01:51:40;;;;;;;3.22;0.30;;;11.30;79.10;;;;;;5104650;28;27530;-58
2021/05/05 01:54:25;;;;;;;1.65;0.20;;;11.30;79.60;;;;;;5101883;28;27467;-58
2021/05/05 01:57:23;;;;;;;0.70;0.20;;;11.30;79.90;;;;;;5105601;28;27406;-58
2021/05/05 02:00:17;;;;;;;0.20;0.20;;;11.20;80.20;;;;;;5105691;28;28003;-58
2021/05/05 02:03:02;;;;;;;0.55;0.30;;;11.20;80.70;;;;;;5105202;28;27411;-58
2021/05/05 02:05:48;;;;;;;0.73;0.28;;;11.20;81.10;;;;;;5102425;28;27366;-58
2021/05/05 02:08:52;;;;;;;1.70;0.50;;;11.20;81.50;;;;;;5105578;28;27353;-58
2021/05/05 02:11:37;;;;;;;0.47;0.40;;;11.10;81.20;;;;;;5101122;28;27346;-58
2021/05/05 02:14:22;;;;;;;0.20;0.20;;;11.10;81.80;;;;;;5101044;28;27359;-57
2021/05/05 02:17:06;;;;;;;1.08;0.40;;;11.10;81.70;;;;;;5102137;28;27363;-57
2021/05/05 02:19:51;;;;;;;1.48;0.40;;;11.10;81.80;;;;;;5101977;28;27371;-58
2021/05/05 02:22:35;;;;;;;0.30;0.30;;;11.00;81.80;;;;;;5101149;28;27367;-58
2021/05/05 02:25:20;;;;;;;0.30;0.30;;;11.00;82.30;;;;;;5100919;28;27404;-58
2021/05/05 02:28:05;;;;;;;0.47;0.38;;;11.00;82.10;;;;;;5103395;27;27398;-58
2021/05/05 02:30:55;;;;;;;0.57;0.50;;;10.90;82.80;;;;;;5101152;28;27344;-59
2021/05/05 02:33:40;;;;;;;0.50;0.50;;;10.90;82.90;;;;;;5100726;28;28116;-58
2021/05/05 02:36:25;;;;;;;1.38;0.82;;;11.00;83.30;;;;;;5101765;28;27419;-59
2021/05/05 02:39:10;;;;;;;0.90;0.60;;;10.90;83.20;;;;;;5086676;28;27342;-58
2021/05/05 02:41:55;;;;;;;3.13;0.80;;;10.90;83.20;;;;;;5102306;28;27351;-58
2021/05/05 02:44:40;;;;;;;1.33;0.60;;;10.90;84.00;;;;;;5100866;28;27336;-58
2021/05/05 02:47:25;;;;;;;0.88;0.57;;;10.90;83.80;;;;;;5100821;28;27458;-58
2021/05/05 02:50:11;;;;;;;1.30;0.50;;;10.90;84.00;;;;;;5101307;28;27510;-58
2021/05/05 02:52:56;;;;;;;1.30;0.75;;;10.90;83.80;;;;;;5101120;28;27521;-59
2021/05/05 02:55:41;;;;;;;0.70;0.60;;;10.90;84.20;;;;;;5100599;28;27460;-58
2021/05/05 02:58:25;;;;;;;0.70;0.50;;;10.80;83.70;;;;;;5100717;28;27455;-57
2021/05/05 03:01:10;;;;;;;0.88;0.60;;;10.80;84.00;;;;;;5104691;28;27451;-58
2021/05/05 03:04:20;;;;;;;2.35;0.82;;;10.80;85.20;;;;;;5103786;28;27426;-57
2021/05/05 03:07:05;;;;;;;1.75;0.60;;;10.80;84.50;;;;;;5104303;28;27975;-57
2021/05/05 03:09:49;;;;;;;0.40;0.40;;;10.80;84.70;;;;;;5101272;28;27403;-57
2021/05/05 03:12:34;;;;;;;1.20;0.60;;;10.80;85.10;;;;;;5104046;28;27431;-57
2021/05/05 03:15:18;;;;;;;1.52;0.50;;;10.80;85.40;;;;;;5104436;28;27446;-58
2021/05/05 03:18:03;;;;;;;0.98;0.60;;;10.70;85.80;;;;;;5103505;28;27989;-58
2021/05/05 03:20:48;;;;;;;0.65;0.50;;;10.70;85.70;;;;;;5104145;28;27407;-58
2021/05/05 03:23:32;;;;;;;1.48;0.60;;;10.70;85.80;;;;;;5104036;28;27587;-58
2021/05/05 03:26:17;;;;;;;0.90;0.60;;;10.70;86.00;;;;;;5103800;28;27685;-57
2021/05/05 03:29:02;;;;;;;0.63;0.60;;;10.60;86.90;;;;;;5104300;28;27454;-58
2021/05/05 03:31:46;;;;;;;4.00;0.70;;;10.60;86.90;;;;;;5100530;28;27424;-58
2021/05/05 03:34:31;;;;;;;2.00;0.68;;;10.60;86.60;;;;;;5104245;28;27388;-58
2021/05/05 03:37:15;;;;;;;1.63;0.80;;;10.60;87.80;;;;;;5103406;28;27651;-58
2021/05/05 03:40:00;;;;;;;1.05;0.75;;;10.50;88.10;;;;;;5103660;28;27332;-58
2021/05/05 03:42:45;;;;;;;0.93;0.50;;;10.50;88.40;;;;;;5099947;28;27452;-58
2021/05/05 03:45:29;;;;;;;3.63;1.20;;;10.50;88.60;;;;;;5104015;28;27323;-58
2021/05/05 03:48:14;;;;;;;1.80;0.98;;;10.50;89.10;;;;;;5103056;28;27382;-58
2021/05/05 03:50:59;;;;;;;1.52;1.02;;;10.50;89.10;;;;;;5099577;28;27430;-58
2021/05/05 03:53:44;;;;;;;2.15;1.08;;;10.50;89.30;;;;;;5103726;28;27367;-58
2021/05/05 03:56:29;;;;;;;2.20;0.95;;;10.50;89.70;;;;;;5103592;28;27396;-58
2021/05/05 03:59:13;;;;;;;3.90;0.95;;;10.50;89.50;;;;;;5102926;28;27306;-58
2021/05/05 04:01:58;;;;;;;1.92;0.80;;;10.50;89.70;;;;;;5103508;28;27342;-58
2021/05/05 04:04:42;;;;;;;3.35;1.10;;;10.50;90.10;;;;;;5100960;28;27343;-57
2021/05/05 04:07:35;;;;;;;1.10;1.00;;;10.50;90.00;;;;;;5103692;28;27348;-58
2021/05/05 04:10:20;;;;;;;2.70;0.95;;;10.50;90.00;;;;;;5103309;28;27449;-58
2021/05/05 04:13:05;;;;;;;1.10;0.70;;;10.50;90.10;;;;;;5103436;28;27544;-58
2021/05/05 04:15:49;;;;;;;3.47;0.95;;;10.50;90.00;;;;;;5103282;28;27475;-58
2021/05/05 04:18:34;;;;;;;4.90;0.90;;;10.50;89.90;;;;;;5103615;28;27435;-58
2021/05/05 04:21:18;;;;;;;1.45;0.70;;;10.50;89.20;;;;;;5103464;28;27412;-58
2021/05/05 04:24:03;;;;;;;1.33;0.85;;;10.50;89.90;;;;;;5088044;28;27499;-58
2021/05/05 04:26:48;;;;;;;3.00;0.70;;;10.50;89.10;;;;;;5102595;28;27446;-58
2021/05/05 04:29:33;;;;;;;0.88;0.60;;;10.50;89.20;;;;;;5103559;28;27375;-58
2021/05/05 04:32:18;;;;;;;2.33;0.77;;;10.50;89.50;;;;;;5102175;28;27477;-58
2021/05/05 04:35:03;;;;;;;2.63;0.60;;;10.50;90.00;;;;;;5102976;28;27426;-58
2021/05/05 04:37:47;;;;;;;0.65;0.40;;;10.50;90.10;;;;;;5102966;28;27423;-58
2021/05/05 04:40:33;;;;;;;1.60;0.40;;;10.50;89.40;;;;;;5102537;28;27347;-58
2021/05/05 04:43:18;;;;;;;2.58;0.70;;;10.50;89.80;;;;;;5103196;28;27428;-58
2021/05/05 04:46:03;;;;;;;1.02;0.40;;;10.50;89.00;;;;;;5103139;28;27454;-58
2021/05/05 04:48:47;;;;;;;4.05;0.47;;;10.50;89.70;;;;;;5102893;28;27416;-58
2021/05/05 04:51:32;;;;;;;1.30;0.50;;;10.50;89.90;;;;;;5103960;27;27467;-58
2021/05/05 04:54:16;;;;;;;0.88;0.30;;;10.50;89.70;;;;;;5107739;28;27453;-58
2021/05/05 04:57:01;;;;;;;0.68;0.55;;;10.50;89.90;;;;;;5107573;28;27438;-58
2021/05/05 04:59:45;;;;;;;0.20;0.20;;;10.50;90.50;;;;;;5104559;28;27515;-58
2021/05/05 05:02:29;;;;;;;2.45;0.70;;;10.50;90.50;;;;;;5107063;28;27380;-58
2021/05/05 05:05:14;;;;;;;2.45;0.35;;;10.50;90.60;;;;;;5107506;28;27391;-58
2021/05/05 05:07:58;;;;;;;1.10;0.40;;;10.40;90.60;;;;;;5107652;28;27376;-58
2021/05/05 05:10:43;;;;;;;0.45;0.45;;;10.50;90.70;;;;;;5107723;28;27374;-58
2021/05/05 05:13:28;;;;;;;1.42;0.43;;;10.40;90.30;;;;;;5107403;28;27359;-58
2021/05/05 05:16:12;;;;;;;0.30;0.30;;;10.40;90.40;;;;;;5107578;28;27321;-58
2021/05/05 05:18:56;;;;;;;1.70;0.82;;;10.40;90.20;;;;;;5106782;28;28044;-58
2021/05/05 05:21:41;;;;;;;0.40;0.40;;;10.40;90.60;;;;;;5103990;28;27411;-58
2021/05/05 05:24:27;;;;;;;0.40;0.40;;;10.40;90.60;;;;;;5107109;28;27382;-59
2021/05/05 05:27:11;;;;;;;0.73;0.50;;;10.40;90.30;;;;;;5106788;28;27332;-58
2021/05/05 05:29:56;;;;;;;0.63;0.32;;;10.40;90.70;;;;;;5106724;28;27426;-58
2021/05/05 05:32:40;;;;;;;0.65;0.45;;;10.50;90.80;;;;;;5106898;28;27481;-58
2021/05/05 05:35:26;;;;;;;1.23;0.60;;;10.50;90.90;;;;;;5106408;28;27437;-58
2021/05/05 05:38:11;;;;;;;0.57;0.30;;;10.50;90.80;;;;;;5106985;28;27398;-58
2021/05/05 05:40:55;;;;;;;2.08;0.25;;;10.50;91.00;;;;;;5107154;28;27973;-58
2021/05/05 05:43:40;;;;;;;0.40;0.20;;;10.60;91.10;;;;;;5106924;28;27442;-58
2021/05/05 05:46:24;;;;;;;0.20;0.20;;;10.60;90.90;;;;;;5107053;28;27402;-58
2021/05/05 05:49:10;;;;;;;1.75;0.30;;;10.60;90.70;;;;;;5106771;28;27414;-58
2021/05/05 05:51:55;;;;;;;0.80;0.32;;;10.70;87.70;;;;;;5106882;28;27429;-59
2021/05/05 05:54:39;;;;;;;0.50;0.40;;;10.80;89.50;;;;;;5103609;28;27416;-58
2021/05/05 05:57:24;;;;;;;1.38;0.40;;;10.80;83.30;;;;;;5106975;28;27413;-58
2021/05/05 06:00:09;;;;;;;0.65;0.40;;;10.90;82.00;;;;;;5106939;28;27420;-58
2021/05/05 06:02:57;;;;;;;3.35;1.20;;;10.90;81.60;;;;;;5105167;27;27381;-58
2021/05/05 06:05:41;;;;;;;0.43;0.40;;;10.80;81.40;;;;;;5106482;28;27367;-59
2021/05/05 06:08:26;;;;;;;1.15;0.80;;;10.80;80.70;;;;;;5106537;28;27391;-58
2021/05/05 06:11:10;;;;;;;1.17;0.77;;;10.80;80.70;;;;;;5106524;28;27393;-58
2021/05/05 06:13:54;;;;;;;1.15;0.77;;;10.80;81.20;;;;;;5106715;28;27895;-58
2021/05/05 06:16:39;;;;;;;2.22;0.77;;;10.70;81.10;;;;;;5105956;28;27515;-58
2021/05/05 06:19:23;;;;;;;1.05;0.60;;;10.70;81.10;;;;;;5106720;28;27445;-58
2021/05/05 06:22:08;;;;;;;1.77;0.95;;;10.80;81.90;;;;;;5105333;28;27699;-58
2021/05/05 06:24:52;;;;;;;2.40;0.70;;;10.70;82.00;;;;;;5105542;28;27486;-58
2021/05/05 06:27:37;;;;;;;1.50;0.82;;;10.80;82.80;;;;;;5105739;28;27418;-58
2021/05/05 06:30:22;;;;;;;2.97;1.17;;;10.80;81.50;;;;;;5106256;28;27521;-58
2021/05/05 06:33:07;;;;;;;2.28;1.00;;;10.80;81.90;;;;;;5106199;28;27478;-59
2021/05/05 06:35:52;;;;;;;1.80;0.95;;;10.80;82.40;;;;;;5106616;28;27431;-58
2021/05/05 06:38:36;;;;;;;2.60;0.80;;;10.90;82.80;;;;;;5106116;28;27489;-59
2021/05/05 06:41:21;;;;;;;1.58;1.00;;;11.10;83.10;;;;;;5102852;28;27458;-59
2021/05/05 06:44:06;;;;;;;2.67;1.10;;;11.30;82.70;;;;;;5106249;28;27414;-58
2021/05/05 06:46:54;;;;;;;2.35;0.75;;;11.50;82.10;;;;;;5105858;28;27930;-59
2021/05/05 06:49:39;;;;;;;3.50;1.42;;;11.60;82.30;;;;;;5105629;28;27493;-59
2021/05/05 06:52:23;;;;;;;2.08;1.60;;;11.60;80.60;;;;;;5102604;28;27453;-58
2021/05/05 06:55:09;;;;;;;2.85;1.17;;;11.70;80.90;;;;;;5106039;28;27495;-59
2021/05/05 06:57:53;;;;;;;3.15;1.40;;;11.90;80.10;;;;;;5105919;28;27468;-59
2021/05/05 07:00:38;;;;;;;3.10;1.13;;;12.20;80.60;;;;;;5105822;28;27473;-59
2021/05/05 07:03:22;;;;;;;3.83;1.70;;;12.60;78.10;;;;;;5105885;28;27465;-59
2021/05/05 07:06:07;;;;;;;6.78;1.27;;;12.80;77.80;;;;;;5105768;28;27449;-59
2021/05/05 07:08:51;;;;;;;1.73;1.17;;;13.40;77.20;;;;;;5105463;28;27872;-59
2021/05/05 07:11:38;;;;;;;3.63;1.20;;;13.90;76.00;;;;;;5104910;28;27439;-59
2021/05/05 07:14:23;;;;;;;1.70;1.20;;;13.90;74.00;;;;;;5100869;28;27459;-59
2021/05/05 07:17:08;;;;;;;2.70;1.40;;;13.80;74.50;;;;;;5102818;28;28005;-59
2021/05/05 07:19:53;;;;;;;4.30;1.10;;;13.80;75.10;;;;;;5105566;28;27453;-59
2021/05/05 07:22:38;;;;;;;4.32;1.13;;;13.70;74.90;;;;;;5105291;28;27456;-59
2021/05/05 07:25:23;;;;;;;4.20;1.42;;;13.60;75.70;;;;;;5105451;28;27478;-59
2021/05/05 07:28:07;;;;;;;2.63;1.40;;;13.40;74.70;;;;;;5103601;28;27440;-58
2021/05/05 07:30:52;;;;;;;2.92;1.10;;;13.20;75.50;;;;;;5105469;28;27481;-59
2021/05/05 07:33:37;;;;;;;6.82;1.27;;;13.10;76.80;;;;;;5104733;28;27470;-59
2021/05/05 07:36:26;;;;;;;4.88;1.27;;;13.00;77.90;;;;;;5105011;28;27493;-58
2021/05/05 07:42:23;;;;;;;5.90;1.48;;;13.10;77.30;;;;;;5104965;28;27426;-59
2021/05/05 07:45:14;;;;;;;2.50;1.30;;;13.10;77.50;;;;;;5103732;28;27390;-58
2021/05/05 07:48:11;;;;;;;3.25;1.20;;;13.00;76.10;;;;;;5105216;28;27323;-59
2021/05/05 07:50:56;;;;;;;4.57;1.20;;;13.10;75.50;;;;;;5104880;28;27437;-59
2021/05/05 07:53:42;;;;;;;4.72;1.40;;;13.10;74.80;;;;;;5104633;28;27435;-58
2021/05/05 07:56:27;;;;;;;11.23;2.75;;;13.10;73.90;;;;;;5104732;28;27483;-59
2021/05/05 07:59:12;;;;;;;4.28;1.33;;;13.20;73.60;;;;;;5104730;28;27469;-58
2021/05/05 08:01:57;;;;;;;10.05;1.50;;;13.50;73.70;;;;;;5104736;28;26935;-59
2021/05/05 08:04:49;;;;;;;4.40;1.17;;;13.70;72.70;;;;;;5104866;28;27476;-59
2021/05/05 08:07:34;;;;;;;9.13;1.90;;;13.90;71.80;;;;;;5103802;28;27406;-59
2021/05/05 08:10:18;;;;;;;4.32;1.50;;;14.10;71.30;;;;;;5100683;28;27367;-59
2021/05/05 08:13:03;;;;;;;6.18;1.67;;;14.50;69.50;;;;;;5103536;28;27322;-59
2021/05/05 08:15:47;;;;;;;6.10;1.30;;;15.00;69.00;;;;;;5104686;28;27394;-59
2021/05/05 08:18:32;;;;;;;5.03;1.60;;;15.70;67.90;;;;;;5103734;28;27418;-59
2021/05/05 08:21:17;;;;;;;5.10;1.30;;;16.30;64.60;;;;;;5104732;28;27377;-59
2021/05/05 08:24:02;;;;;;;5.18;1.40;;;16.40;63.70;;;;;;5104557;28;27390;-59
2021/05/05 08:26:47;;;;;;;7.82;1.77;;;16.10;63.30;;;;;;5103157;28;27426;-59
2021/05/05 08:29:32;;;;;;;9.20;1.50;;;15.80;64.20;;;;;;5101190;28;27403;-59
2021/05/05 08:32:16;;;;;;;4.03;1.60;;;15.60;64.30;;;;;;5104254;28;27402;-59
2021/05/05 08:35:01;;;;;;;6.47;1.70;;;15.40;64.10;;;;;;5104310;28;27335;-59
2021/05/05 08:37:48;;;;;;;8.38;1.50;;;15.10;63.40;;;;;;5104443;28;27406;-59
2021/05/05 08:40:33;;;;;;;5.15;1.58;;;14.80;64.60;;;;;;5103468;28;27370;-59
2021/05/05 08:43:18;;;;;;;4.57;1.77;;;14.50;65.60;;;;;;5104080;28;27468;-59
2021/05/05 08:46:06;;;;;;;4.95;1.15;;;14.30;66.50;;;;;;5104118;28;27361;-59
2021/05/05 08:48:50;;;;;;;5.80;1.52;;;14.10;67.80;;;;;;5104384;28;27860;-59
2021/05/05 08:51:35;;;;;;;3.63;1.23;;;13.90;66.90;;;;;;5103762;28;27399;-59
2021/05/05 08:54:20;;;;;;;5.38;1.35;;;14.00;66.20;;;;;;5103918;28;27411;-58
2021/05/05 08:57:05;;;;;;;4.28;1.23;;;14.10;67.40;;;;;;5103932;28;27387;-59
2021/05/05 08:59:50;;;;;;;7.60;1.40;;;14.10;68.30;;;;;;5100887;28;27367;-59
2021/05/05 09:02:34;;;;;;;3.65;1.17;;;14.00;68.30;;;;;;5104096;28;27395;-59
2021/05/05 09:05:19;;;;;;;5.03;1.65;;;13.90;67.30;;;;;;5104250;28;27346;-59
2021/05/05 09:08:10;;;;;;;3.85;1.58;;;13.90;66.90;;;;;;5101514;28;27324;-59
2021/05/05 09:11:00;;;;;;;6.90;1.38;;;14.00;67.70;;;;;;5103778;28;27865;-59
2021/05/05 09:13:52;;;;;;;2.45;1.30;;;14.10;66.60;;;;;;5103435;28;27490;-59
2021/05/05 09:16:37;;;;;;;2.70;1.25;;;14.20;66.30;;;;;;5104010;28;27418;-59
2021/05/05 09:19:22;;;;;;;3.33;1.20;;;14.50;66.80;;;;;;5103937;28;26930;-59
2021/05/05 09:22:07;;;;;;;5.00;1.48;;;15.30;66.50;;;;;;5100233;28;27373;-59
2021/05/05 09:24:56;;;;;;;6.47;1.27;;;16.20;64.70;;;;;;5103521;28;27328;-60
2021/05/05 09:27:41;;;;;;;5.32;1.20;;;17.10;61.80;;;;;;5102820;28;27623;-60
2021/05/05 09:30:27;;;;;;;4.70;1.10;;;17.90;60.50;;;;;;5103819;28;27433;-60
2021/05/05 09:33:25;;;;;;;6.45;1.38;;;18.60;57.80;;;;;;5103223;28;27440;-60
2021/05/05 09:36:09;;;;;;;4.22;1.20;;;18.70;56.70;;;;;;5103259;28;27445;-60
2021/05/05 09:38:54;;;;;;;3.20;1.00;;;18.90;56.20;;;;;;5105314;27;27439;-60
2021/05/05 09:41:43;;;;;;;5.57;1.40;;;19.10;56.10;;;;;;5106437;28;27450;-60
2021/05/05 09:44:28;;;;;;;4.75;1.25;;;19.40;54.70;;;;;;5106796;28;27355;-60
2021/05/05 09:47:12;;;;;;;5.18;1.20;;;19.80;53.20;;;;;;5106984;28;27396;-61
2021/05/05 09:49:57;;;;;;;6.13;1.20;;;20.20;52.10;;;;;;5106057;28;27423;-61
2021/05/05 09:52:42;;;;;;;8.27;1.70;;;20.70;51.80;;;;;;5106858;28;27314;-61
2021/05/05 09:55:27;;;;;;;4.15;1.48;;;21.00;51.10;;;;;;5106654;28;27872;-60
2021/05/05 09:58:37;;;;;;;4.88;1.30;;;21.20;49.00;;;;;;5106541;28;27352;-61
2021/05/05 10:01:22;;;;;;;3.90;1.60;;;21.40;49.10;;;;;;5106678;28;27494;-61
2021/05/05 10:04:07;;;;;;;3.33;1.10;;;21.50;48.80;;;;;;5105923;28;26995;-61
2021/05/05 10:07:00;;;;;;;1.60;0.95;;;21.40;48.00;;;;;;5106595;28;27521;-61
2021/05/05 10:09:45;;;;;;;7.05;1.35;;;21.40;47.90;;;;;;5102335;28;27383;-61
2021/05/05 10:12:30;;;;;;;2.90;1.10;;;21.50;48.20;;;;;;5103012;28;27486;-61
2021/05/05 10:15:16;;;;;;;3.95;1.20;;;21.60;48.20;;;;;;5106692;28;27332;-62
2021/05/05 10:18:01;;;;;;;3.53;1.15;;;21.70;46.80;;;;;;5106577;28;27375;-61
2021/05/05 10:20:46;;;;;;;4.78;1.25;;;21.50;46.80;;;;;;5105796;28;27406;-61
2021/05/05 10:23:32;;;;;;;6.10;1.33;;;21.30;48.20;;;;;;5105806;28;27332;-61
2021/05/05 10:26:20;;;;;;;5.22;1.25;;;21.10;47.50;;;;;;5104861;28;27525;-61
2021/05/05 10:29:05;;;;;;;1.48;1.10;;;20.70;48.50;;;;;;5106129;28;27503;-61
2021/05/05 10:31:56;;;;;;;5.53;1.10;;;20.30;49.10;;;;;;5105625;28;27439;-61
2021/05/05 10:34:44;;;;;;;5.47;0.95;;;20.20;49.20;;;;;;5106150;28;27379;-61
2021/05/05 10:37:49;;;;;;;4.95;0.90;;;20.30;48.60;;;;;;5105252;28;27468;-60
2021/05/05 10:40:36;;;;;;;2.05;0.93;;;20.10;49.00;;;;;;5105936;28;27521;-61
2021/05/05 10:43:23;;;;;;;1.88;0.88;;;20.00;48.40;;;;;;5106141;28;27391;-60
2021/05/05 10:46:43;;;;;;;3.28;1.05;;;19.90;48.20;;;;;;5106117;28;27416;-59
2021/05/05 10:49:27;;;;;;;5.78;1.20;;;20.00;49.70;;;;;;5062041;28;27529;-59
2021/05/05 10:52:12;;;;;;;13.98;1.33;;;20.20;48.60;;;;;;5045543;28;27505;-59
2021/05/05 10:54:57;;;;;;;4.28;1.08;;;20.30;48.00;;;;;;5049268;28;27504;-59
2021/05/05 10:58:02;;;;;;;5.18;1.00;;;20.40;48.20;;;;;;5048275;28;27539;-59
2021/05/05 11:00:55;;;;;;;2.42;0.85;;;20.60;48.60;;;;;;5034034;28;27513;-59
2021/05/05 11:03:44;;;;;;;1.75;0.70;;;20.40;48.30;;;;;;5063193;28;27345;-59
2021/05/05 11:06:36;;;;;;;3.47;0.60;;;20.00;46.10;;;;;;5063326;28;27500;-59
2021/05/05 11:09:22;;;;;;;5.03;1.33;;;19.60;46.50;;;;;;5062982;28;27369;-58
2021/05/05 11:12:28;;;;;;;7.57;1.30;;;19.30;45.80;;;;;;5063153;28;27466;-58
2021/05/05 11:15:14;;;;;;;4.10;1.00;;;19.00;44.70;;;;;;5051690;28;27476;-58
2021/05/05 11:17:58;;;;;;;4.95;1.02;;;18.50;47.20;;;;;;5062846;28;27511;-58
2021/05/05 11:20:43;;;;;;;1.83;1.10;;;18.20;49.40;;;;;;5049084;28;27456;-58
2021/05/05 11:23:34;;;;;;;3.35;1.10;;;17.90;50.30;;;;;;5089678;28;27853;-58
2021/05/05 11:26:26;;;;;;;1.63;0.85;;;17.70;51.00;;;;;;5104173;28;27336;-58
2021/05/05 11:29:11;;;;;;;1.45;0.80;;;17.50;53.10;;;;;;5105141;28;27429;-58
2021/05/05 11:31:58;;;;;;;1.52;0.77;;;17.40;52.80;;;;;;5086620;28;27538;-58
2021/05/05 11:34:45;;;;;;;1.42;0.52;;;17.20;54.20;;;;;;5104958;28;27320;-58
2021/05/05 11:37:29;;;;;;;0.47;0.43;;;17.10;54.70;;;;;;5104947;28;27340;-58
2021/05/05 11:40:14;;;;;;;1.70;0.70;;;16.90;54.40;;;;;;5104418;28;27335;-58
2021/05/05 11:42:59;;;;;;;0.98;0.60;;;16.80;55.30;;;;;;5105362;28;27399;-58
2021/05/05 11:45:52;;;;;;;3.25;0.98;;;16.70;55.70;;;;;;5104467;28;27384;-58
2021/05/05 11:48:38;;;;;;;1.75;0.90;;;16.60;55.60;;;;;;5105086;28;27347;-58
2021/05/05 11:51:25;;;;;;;1.92;0.80;;;16.50;55.00;;;;;;5105007;28;27564;-58
2021/05/05 11:54:13;;;;;;;2.95;0.90;;;16.40;55.40;;;;;;5104748;28;27390;-58
2021/05/05 11:57:04;;;;;;;2.17;1.00;;;16.30;55.60;;;;;;5100657;28;27509;-58
2021/05/05 11:59:49;;;;;;;1.77;0.55;;;16.50;55.60;;;;;;5100679;28;27486;-59
2021/05/05 12:02:34;;;;;;;1.23;0.60;;;16.80;57.20;;;;;;5104916;28;27311;-58
2021/05/05 12:05:23;;;;;;;2.10;0.70;;;17.10;58.30;;;;;;5089642;28;27449;-59
2021/05/05 12:08:19;;;;;;;1.05;0.73;;;17.40;58.70;;;;;;5104487;28;27450;-58
2021/05/05 12:11:04;;;;;;;1.33;0.57;;;17.60;59.30;;;;;;5104712;28;27477;-59
2021/05/05 12:13:48;;;;;;;0.88;0.68;;;17.80;58.10;;;;;;5104348;28;27482;-59
2021/05/05 12:16:36;;;;;;;3.08;0.60;;;18.10;58.40;;;;;;5103791;28;27454;-59
2021/05/05 12:19:20;;;;;;;2.53;1.00;;;18.20;59.30;;;;;;5101642;28;27438;-59
2021/05/05 12:22:12;;;;;;;2.88;0.77;;;18.50;59.20;;;;;;5104396;28;27876;-59
2021/05/05 12:25:11;;;;;;;0.93;0.73;;;18.60;58.50;;;;;;5104297;28;27487;-59
2021/05/05 12:28:05;;;;;;;2.65;0.95;;;18.70;57.50;;;;;;5103583;28;27444;-59
2021/05/05 12:30:52;;;;;;;2.40;0.50;;;18.70;55.60;;;;;;5104346;28;27449;-59
2021/05/05 12:33:38;;;;;;;1.45;0.63;;;18.70;54.70;;;;;;5103821;28;27349;-59
2021/05/05 12:36:25;;;;;;;1.02;0.65;;;18.70;54.20;;;;;;5104498;28;27402;-59
2021/05/05 12:39:12;;;;;;;1.50;0.50;;;18.70;54.80;;;;;;5104466;28;27328;-59
2021/05/05 12:41:56;;;;;;;3.10;1.00;;;18.70;55.90;;;;;;5103997;28;27467;-59
2021/05/05 12:44:41;;;;;;;3.35;0.60;;;18.80;57.70;;;;;;5104060;28;28047;-59
2021/05/05 12:47:29;;;;;;;3.38;0.68;;;18.80;57.20;;;;;;5101508;28;27613;-59
2021/05/05 12:50:15;;;;;;;2.03;0.80;;;18.70;57.50;;;;;;5104350;28;27485;-59
2021/05/05 12:53:03;;;;;;;3.88;0.75;;;18.70;59.10;;;;;;5103704;28;27435;-59
2021/05/05 12:55:56;;;;;;;2.72;0.90;;;18.80;58.70;;;;;;5104002;28;27860;-59
2021/05/05 12:58:42;;;;;;;1.70;1.42;;;19.00;59.00;;;;;;5100915;28;27449;-60
2021/05/05 13:01:28;;;;;;;2.03;1.00;;;19.00;54.90;;;;;;5103938;28;27344;-60
2021/05/05 13:04:17;;;;;;;2.38;0.80;;;19.00;57.90;;;;;;5100845;28;27369;-59
2021/05/05 13:07:02;;;;;;;2.10;1.00;;;19.00;58.80;;;;;;5103606;28;27427;-60
2021/05/05 13:10:14;;;;;;;2.28;1.00;;;19.00;58.50;;;;;;5103708;28;27427;-60
2021/05/05 13:13:20;;;;;;;2.08;1.00;;;19.10;57.50;;;;;;5104694;27;27395;-60
2021/05/05 13:19:20;;;;;;;2.78;0.85;;;19.40;56.50;;;;;;5107290;28;27373;-60
2021/05/05 13:26:00;;;;;;;2.28;0.90;;;19.60;53.40;;;;;;5107177;28;27342;-59
2021/05/05 13:31:40;;;;;;;3.15;0.77;;;19.80;52.60;;;;;;5107397;28;27489;-60
2021/05/05 13:34:28;;;;;;;1.25;0.70;;;19.90;52.60;;;;;;5106835;28;27606;-60
2021/05/05 13:37:13;;;;;;;3.80;0.82;;;20.10;52.20;;;;;;5107139;28;27407;-60
2021/05/05 13:39:58;;;;;;;1.13;0.60;;;20.20;52.00;;;;;;5107054;28;26849;-59
2021/05/05 13:42:43;;;;;;;2.60;0.73;;;20.10;52.30;;;;;;5106271;28;27996;-60
2021/05/05 13:45:31;;;;;;;1.02;0.75;;;20.20;51.90;;;;;;5107032;28;27453;-60
2021/05/05 13:48:41;;;;;;;1.98;0.80;;;20.10;49.70;;;;;;5106828;28;27411;-59
2021/05/05 13:51:24;;;;;;;2.08;0.73;;;20.00;49.60;;;;;;5106731;28;27343;-59
2021/05/05 13:54:09;;;;;;;1.10;0.63;;;19.80;48.40;;;;;;5106352;28;27407;-59
2021/05/05 13:56:53;;;;;;;1.90;0.70;;;19.70;47.20;;;;;;5106149;28;27398;-59
2021/05/05 13:59:40;;;;;;;1.65;0.85;;;19.50;47.70;;;;;;5106864;28;27388;-59
2021/05/05 14:02:24;;;;;;;2.17;0.60;;;19.40;47.60;;;;;;5106576;28;27318;-59
2021/05/05 14:05:12;;;;;;;2.08;0.80;;;19.20;47.40;;;;;;5106541;28;27358;-59
2021/05/05 14:07:57;;;;;;;1.35;0.70;;;19.00;47.80;;;;;;5106338;28;27430;-59
2021/05/05 14:10:41;;;;;;;4.28;0.90;;;18.80;47.50;;;;;;5102512;28;27428;-59
2021/05/05 14:13:26;;;;;;;5.88;1.92;;;18.60;48.70;;;;;;5106014;28;27332;-59
2021/05/05 14:16:12;;;;;;;4.55;0.70;;;18.40;46.40;;;;;;5106699;28;27650;-59
2021/05/05 14:18:57;;;;;;;2.10;0.60;;;18.20;46.40;;;;;;5106166;28;27495;-59
2021/05/05 14:21:42;;;;;;;3.78;0.82;;;18.10;47.20;;;;;;5106238;28;27505;-59
2021/05/05 14:24:27;;;;;;;1.38;0.70;;;18.00;46.70;;;;;;5105297;27;27428;-59
2021/05/05 14:27:12;;;;;;;1.85;0.77;;;18.10;47.60;;;;;;5105427;28;27469;-59
2021/05/05 14:29:56;;;;;;;1.73;0.80;;;18.10;49.20;;;;;;5106141;28;27378;-59
2021/05/05 14:32:41;;;;;;;0.80;0.50;;;18.20;49.50;;;;;;5105937;28;27367;-59
2021/05/05 14:35:30;;;;;;;1.05;0.55;;;18.30;49.90;;;;;;5105538;28;27356;-59
2021/05/05 14:38:18;;;;;;;1.35;0.60;;;18.40;51.10;;;;;;5106065;28;27463;-58